Record high temperature 100.8°F Record low temperature -75.5°F Record high gust 121.0 mph Record high average 61.8 mph Record daily rain 2.61 in. Record low windchill -106.6°F Record high barometer 31.889 in. Record low barometer 23.642 in.
Daily high pressure 30.222 in. Daily low pressure 29.951 in. Daily low windchill 9.7°F Daily high heat index 46.5°F Daily high gust speed 8.4 mph SE Daily high average speed 5.4 mph ESE
Weather Data
LAST READING AT TIME: 13:50 PM DATE: November 25 2014, time of next update: 02:00 pm
Current WeatherDry Current Temperature 46.5°F (8.1°C), Apparent temp 43.3°F
Maximum Temperature (since midnight)46.5°F at: 1:46 PM Minimum Temperature (since midnight)12.4°F at: 4:21 AM
Average windspeed (ten minute)2.0 mph Wind Direction (ten minute)S (188°)
Windchill Temperature 46.5°F Maximum Gust (last hour)8.4 mph at: 1:37 PM
Maximum Gust (since midnight)8.4 mph at: 1:37 PM Maximum 1 minute average (since midnight)5.4 mph at: 11:38 AM
Rainfall (last hour)0.00 in. (0.0 mm) Rainfall (since midnight)0.00 in. (0.0 mm) ---
Rainfall This month 0.21 in. (5.2 mm) Rainfall To date this year 9.26 in. (235.1 mm)
Maximum rain per minute (last hour)0.00 in/min Maximum rain per hour (last 6 hours)0.00 in/hour
Yesterdays rainfall 0.04 in DewPoint 15.9°F (Wet Bulb :36.8°F )
Humidity 29 %, Humidex 39.6°F Barometer corrected to msl29.955 in. (1014.4 hPa)
Pressure change -0.02 in. (last hour) Trend (last hour)STEADY
Pressure change (last 12 hours)-0.24 in Pressure change (last 6 hours)-0.13 in

This page is updated from recent data collected by a DAVIS WMII weather station Use the Reload or Refresh facility on your browser to retrieve the latest data.


Click here for the last 24 hour graph
Click here for the last 48 hour graph
Click here for the last 72 hour graph
Click here for the month to date graph


Weather report/warning/Metars

COLORADO SPRINGS MUNI, CO, United States (KCOS) 38-49N 104-43W 1856M
Nov 25, 2014 - 02:54 PM EST / 2014.11.25 1954 UTC
Wind: from the NW (310 degrees) at 28 MPH (24 KT) gusting to 37 MPH (32 KT):0
Visibility: 10 mile(s):0
Sky conditions: mostly cloudy
Temperature: 46.0 F (7.8 C)
Dew Point: 14.0 F (-10.0 C)
Relative Humidity: 27%
Pressure (altimeter): 29.93 in. Hg (1013 hPa)
ob: KCOS 251954Z 31024G32KT 10SM FEW080 SCT110 BKN170 08/M10 A2993 RMK AO2 PK WND 32036/1923 SLP160 T00781100
cycle: 20
Air Force Academy, CO, United States (KAFF) 38-58N 104-49W 1999M
Nov 25, 2014 - 02:58 PM EST / 2014.11.25 1958 UTC
Wind: from the WNW (290 degrees) at 14 MPH (12 KT) gusting to 21 MPH (18 KT) (direction variable):0
Visibility: 10 mile(s):0
Sky conditions: clear
Temperature: 41.9 F (5.5 C)
Dew Point: 12.6 F (-10.8 C)
Relative Humidity: 29%
Pressure (altimeter): 29.92 in. Hg (1013 hPa)
ob: KAFF 251958Z AUTO 29012G18KT 260V350 10SM CLR 06/M11 A2992 RMK AO2 PK WND 30030/30 SLP150 T00551108
cycle: 20
Fort Carson, CO, United States (KFCS) 38-42N 104-46W 1789M
Nov 25, 2014 - 02:58 PM EST / 2014.11.25 1958 UTC
Wind: from the ESE (120 degrees) at 9 MPH (8 KT):0
Visibility: 10 mile(s):0
Sky conditions: mostly cloudy
Temperature: 42.1 F (5.6 C)
Dew Point: 14.0 F (-10.0 C)
Relative Humidity: 31%
Pressure (altimeter): 29.92 in. Hg (1013 hPa)
ob: KFCS 251958Z AUTO 12008KT 10SM SCT110 BKN130 06/M10 A2992 RMK AO2 SLP182 T00561100
cycle: 20



The data is logged at two minute intervals, but there is data recorded every minute. Best viewed in 800 x 600 and True colour.

Use the RELOAD facility on your browser to retrieve the latest data.

Click here for a daily update of the averages/extremes to date for the month
Created by "Weather Display" software version 10.37R Build 78 at this start time/date 05:36 am 11/24/2014